📊 Raw Sensor Data

Showing records 32976 to 33000 of 84,745 total

ID Distance (ft) Battery V Battery A Int Temp (°F) Int Humid (%) Ext Temp (°F) Solar V RSSI SNR Time Stamp
51782 14.9 4.01 0 81 41 81 5.10 -72 8 09/12/2025 10:45 AM
51781 14.9 4.01 0 79 41 80 5.10 -71 8 09/12/2025 10:30 AM
51780 15.1 4.14 0 77 41 77 5.10 -71 8 09/12/2025 10:15 AM
51779 14.9 4.07 5 76 41 80 5.10 -65 8 09/12/2025 10:00 AM
51778 14.9 4.01 0 74 41 78 5.10 -65 7 09/12/2025 09:45 AM
51777 14.9 4.04 0 72 41 76 5.10 -65 8 09/12/2025 09:30 AM
51776 14.8 4.01 5 70 40 76 5.10 -66 8 09/12/2025 09:15 AM
51775 14.8 4.01 0 68 40 75 5.10 -66 8 09/12/2025 09:00 AM
51774 14.8 4.01 0 66 41 72 5.10 -65 7 09/12/2025 08:45 AM
51773 14.7 4.01 5 64 41 72 5.10 -65 8 09/12/2025 08:30 AM
51772 14.6 4.01 5 62 42 69 5.10 -65 7 09/12/2025 08:15 AM
51771 14.5 4.13 69 60 42 66 4.50 -64 8 09/12/2025 08:00 AM
51770 14.6 4.09 34 58 42 65 4.50 -64 8 09/12/2025 07:45 AM
51769 14.6 4.01 23 56 43 62 4.50 -65 9 09/12/2025 07:30 AM
51768 14.6 4.01 7 55 43 59 4.50 -65 7 09/12/2025 07:15 AM
51767 14.5 3.99 -6 54 44 55 4.50 -65 8 09/12/2025 07:00 AM
51766 14.5 3.92 -10 54 44 55 4.10 -65 7 09/12/2025 06:45 AM
51765 14.5 3.93 -5 53 44 54 0.80 -65 8 09/12/2025 06:30 AM
51764 14.5 3.99 -5 54 44 55 0.00 -65 8 09/12/2025 06:15 AM
51763 14.5 3.99 -5 54 44 55 0.00 -65 8 09/12/2025 06:00 AM
51762 14.5 3.94 -5 54 44 55 0.00 -64 8 09/12/2025 05:45 AM
51761 14.5 3.94 -5 54 44 55 0.10 -64 8 09/12/2025 05:30 AM
51760 14.5 3.94 -5 55 44 56 0.00 -65 8 09/12/2025 05:00 AM
51759 14.6 3.94 -5 55 44 56 0.00 -65 8 09/12/2025 04:45 AM
51758 14.5 3.94 -5 56 44 57 0.00 -65 8 09/12/2025 04:30 AM